Bismarck, ND (58501)

1:44 PM CST on February 14, 2016 (GMT -0600)
Pacific Avenue Bismarck | | Change Station
CLOSE
Current Station
Personal Weather Station
Location: Bismarck, ND
Elevation: 1722 ft
Nearby Weather Stations

Elev 1722 ft 46.83 °N, 100.75 °W | Updated 2 minutes ago

Overcast
Overcast
39.9 °F
Feels Like 37 °F
N
4.2
Wind Variable Wind from West

Today
High -- | Low -- °F
--% Chance of Precip.
Yesterday
High -- | Low -- °F
Precip. -- in
Pressure 29.78 in
Visibility 10.0 miles
Clouds Overcast 1900 ft
Windchill 37 °F
Dew Point 31 °F
Humidity 70%
Rainfall 0.02 in
Snow Depth Not available.
7:49 AM 6:05 PM
Waxing Crescent, 44% visible
METAR KBIS 141852Z AUTO 30003KT 10SM OVC019 04/M02 A2972 RMK AO2 SLP084 T00441017
Pressure 29.78 in
Visibility 10.0 miles
Clouds Overcast 1900 ft
Windchill 37 °F
Dew Point 31 °F
Humidity 70%
Rainfall 0.02 in
Snow Depth Not available.
7:49 AM 6:05 PM
Waxing Crescent, 44% visible
METAR KBIS 141852Z AUTO 30003KT 10SM OVC019 04/M02 A2972 RMK AO2 SLP084 T00441017

10-Day Weather Forecast

Almanac

Astronomy

Feb. 14, 2016 Rise Set
Actual Time
Civil Twilight
Nautical Twilight
Astronomical Twilight
Moon
Length of Visible Light
Length of Day
Tomorrow will be .
, % of the Moon is Illuminated

Today's Extremes

State Highs State Lows

Community

WunderPhotos

Upload Photos

1,892,879 photos uploaded!

WunderBlog® & News

Nearby

Air Quality

  Air Quality AQ Index Pollutant
Not available.

Snow Depth

Station Depth Elevation

Earthquake Activity

City Distance Mag. Time & Date
Minimum magnitude displayed is 2.5.

Coastal Water Temperatures

Place Temperature

Stations

Nearby Weather Stations

Station Location Temp. Windchill Dew Point Humidity Wind Precip. Elev Updated Type
                   

Watches & Warnings

There are currently no watches in effect.